EST,Max TemperatureF,Mean TemperatureF,Min TemperatureF,Max Dew PointF,MeanDew PointF,Min DewpointF,Max Humidity, Mean Humidity, Min Humidity, Max Sea Level PressureIn, Mean Sea Level PressureIn, Min Sea Level PressureIn, Max VisibilityMiles, Mean VisibilityMiles, Min VisibilityMiles, Max Wind SpeedMPH, Mean Wind SpeedMPH, Max Gust SpeedMPH,PrecipitationIn, CloudCover, Events, WindDirDegrees
2012-11-1,62,50,39,40,37,34,86,61,36,29.86,29.79,29.72,10.0,10.0,10.0,16,7,21,0.00,2,,272
2012-11-2,64,50,37,42,36,32,89,62,33,29.96,29.88,29.79,10.0,9.8,9.0,20,6,26,0.02,1,,261
2012-11-3,60,48,37,39,36,33,93,68,38,30.08,30.03,29.96,10.0,9.8,8.0,13,4,,0.00,0,,319
2012-11-4,64,50,37,48,42,35,89,76,54,30.09,30.01,29.94,10.0,9.2,2.0,16,5,,0.15,3,Rain-Thunderstorm,32
2012-11-5,57,50,44,43,38,34,83,66,45,30.12,30.04,29.97,10.0,10.0,10.0,14,10,21,0.00,1,,22
2012-11-6,48,45,42,45,41,36,93,83,71,30.09,29.96,29.83,10.0,8.7,4.0,18,11,23,0.37,6,Rain,7
2012-11-7,48,45,42,45,41,36,92,85,74,29.90,29.84,29.79,10.0,6.7,1.5,17,13,22,0.05,8,Rain,338
2012-11-8,59,48,36,35,31,26,86,61,29,30.07,29.99,29.90,10.0,9.9,8.0,15,9,20,0.00,0,,297
2012-11-9,60,46,32,40,32,27,89,62,31,30.28,30.21,30.09,10.0,10.0,9.0,15,6,16,0.00,0,,347
2012-11-10,68,52,35,44,39,32,93,72,35,30.42,30.36,30.27,10.0,9.5,6.0,6,1,,0.00,0,,155
2012-11-11,73,58,42,54,47,39,93,78,45,30.51,30.45,30.41,10.0,7.8,0.5,8,1,,0.00,1,Fog,75
2012-11-12,77,64,50,63,56,48,96,84,55,30.44,30.35,30.23,10.0,6.5,0.2,13,3,,0.03,4,Fog-Rain,159
2012-11-13,72,59,46,64,55,42,96,89,73,30.35,30.24,30.19,10.0,6.3,0.5,20,6,24,0.04,7,Fog,24
2012-11-14,54,50,46,43,40,38,86,73,64,30.40,30.35,30.31,10.0,9.8,7.0,18,15,28,0.00,7,,20
2012-11-15,57,52,46,49,44,38,89,78,67,30.31,30.22,30.17,10.0,9.3,5.0,16,11,24,0.07,8,Rain,8
2012-11-16,59,52,45,48,43,34,94,77,53,30.34,30.25,30.18,10.0,9.7,8.0,16,12,22,0.00,4,Rain,13
2012-11-17,57,50,43,48,44,37,83,74,65,30.39,30.36,30.33,10.0,10.0,10.0,21,14,26,0.00,5,,23
2012-11-18,60,56,53,55,52,48,94,85,72,30.32,30.27,30.20,10.0,6.1,1.0,25,19,36,0.35,8,Rain,28
2012-11-19,59,56,52,53,51,48,90,84,78,30.19,30.13,30.08,10.0,7.9,4.0,24,19,34,0.00,8,,9
2012-11-20,57,54,51,50,48,44,92,82,75,30.10,30.06,30.03,10.0,8.4,4.0,14,11,23,0.00,7,,9
2012-11-21,61,54,48,46,44,41,87,75,56,30.12,30.08,30.03,10.0,9.6,8.0,16,11,18,0.00,4,,14
2012-11-22,62,53,44,46,43,38,85,73,56,30.15,30.11,30.06,10.0,9.9,9.0,22,15,31,0.00,3,,7
2012-11-23,64,50,37,46,41,35,93,70,34,30.12,30.01,29.86,10.0,9.1,3.0,9,5,,0.00,1,,266
2012-11-24,53,46,39,43,30,21,77,50,37,30.10,29.96,29.85,10.0,10.0,10.0,21,10,25,0.00,0,,322
2012-11-25,51,39,27,32,24,19,86,58,28,30.19,30.12,30.08,10.0,10.0,10.0,12,6,,0.00,0,,275
2012-11-26,64,47,30,39,32,23,89,66,21,30.23,30.18,30.12,10.0,9.6,4.0,8,2,,0.00,0,,201
2012-11-27,66,50,35,47,38,32,96,75,33,30.20,30.17,30.11,10.0,8.0,0.2,12,2,,0.01,5,Fog-Rain,237
2012-11-28,52,43,33,45,37,29,93,76,44,30.39,30.27,30.18,10.0,7.0,2.0,17,10,25,0.02,3,Rain,357
2012-11-29,55,42,28,35,30,25,92,71,34,30.50,30.43,30.39,10.0,8.0,4.0,7,1,,0.00,0,Fog,71
2012-11-30,61,46,30,39,33,27,89,71,34,30.43,30.37,30.32,10.0,8.5,5.0,5,1,,0.00,1,,38